createdAt,value
2024-05-09T00:00:40.860Z,17.50
2024-05-09T00:10:40.777Z,15.60
2024-05-09T00:20:41.207Z,16.30
2024-05-09T00:30:39.910Z,15.90
2024-05-09T00:40:42.477Z,16.60
2024-05-09T00:50:41.225Z,15.50
2024-05-09T01:00:41.544Z,15.70
2024-05-09T01:10:43.734Z,14.90
2024-05-09T01:20:43.853Z,15.10
2024-05-09T01:30:40.975Z,15.60
2024-05-09T01:40:42.207Z,15.60
2024-05-09T01:50:43.021Z,16.40
2024-05-09T02:00:43.302Z,16.60
2024-05-09T02:10:41.762Z,17.00
2024-05-09T02:20:44.323Z,16.20
2024-05-09T02:30:42.695Z,16.30
2024-05-09T02:40:42.467Z,16.40
2024-05-09T02:50:42.539Z,15.90
2024-05-09T03:00:43.205Z,16.60
2024-05-09T03:10:43.032Z,14.80
2024-05-09T03:20:42.883Z,14.70
2024-05-09T03:30:43.510Z,15.10
2024-05-09T03:40:43.408Z,16.30
2024-05-09T03:50:43.571Z,14.90
2024-05-09T04:00:43.680Z,15.20
2024-05-09T04:10:43.715Z,15.80
2024-05-09T04:20:44.037Z,16.60
2024-05-09T04:30:44.169Z,17.60
2024-05-09T04:40:44.528Z,14.40
2024-05-09T04:50:44.631Z,13.00
2024-05-09T05:00:44.748Z,14.60
2024-05-09T05:10:44.714Z,12.90
2024-05-09T05:20:45.364Z,14.10
2024-05-09T05:30:45.149Z,13.80
2024-05-09T05:40:45.586Z,15.10
2024-05-09T05:50:45.753Z,15.40
2024-05-09T06:00:45.778Z,10.20
2024-05-09T06:10:45.953Z,11.10
2024-05-09T06:20:45.970Z,10.10
2024-05-09T06:30:45.948Z,8.60
2024-05-09T06:40:46.916Z,9.90
2024-05-09T06:50:46.318Z,10.20
2024-05-09T07:00:46.662Z,10.70
2024-05-09T07:10:46.845Z,10.50
2024-05-09T07:20:47.511Z,10.80
2024-05-09T07:30:46.968Z,10.70
2024-05-09T07:40:47.304Z,11.30
2024-05-09T08:00:47.632Z,11.00
2024-05-09T08:10:47.690Z,10.10
2024-05-09T08:20:48.027Z,9.40
2024-05-09T08:30:48.181Z,5.50
2024-05-09T08:40:48.580Z,6.40
2024-05-09T08:50:48.438Z,5.70
2024-05-09T09:00:49.689Z,5.30
2024-05-09T09:10:48.782Z,5.00
2024-05-09T09:20:49.045Z,5.30
2024-05-09T09:30:49.117Z,4.30
2024-05-09T09:40:50.018Z,3.60
2024-05-09T09:50:49.364Z,2.80
2024-05-09T10:00:49.684Z,3.80
2024-05-09T10:10:50.528Z,3.10
2024-05-09T10:20:49.897Z,3.30
2024-05-09T10:30:50.520Z,3.00
2024-05-09T10:40:50.243Z,2.90
2024-05-09T10:50:50.388Z,2.80
2024-05-09T11:00:51.005Z,3.30
2024-05-09T11:10:50.816Z,2.50
2024-05-09T11:20:51.056Z,2.30
2024-05-09T11:30:51.292Z,2.10
2024-05-09T11:40:51.308Z,2.10
2024-05-09T11:50:51.462Z,2.30
2024-05-09T12:00:51.917Z,2.40
2024-05-09T12:10:52.048Z,2.20
2024-05-09T12:20:52.212Z,2.10
2024-05-09T12:30:52.222Z,1.90
2024-05-09T12:40:52.594Z,1.80
2024-05-09T12:50:52.671Z,1.80
2024-05-09T13:00:53.253Z,1.80
2024-05-09T13:10:53.112Z,1.70
2024-05-09T13:20:53.156Z,2.00
2024-05-09T13:30:53.351Z,1.70
2024-05-09T13:40:53.864Z,2.00
2024-05-09T13:50:53.632Z,2.20
2024-05-09T14:00:54.047Z,2.20
2024-05-09T14:10:54.117Z,1.20
2024-05-09T14:20:54.164Z,1.30
2024-05-09T14:30:54.172Z,1.30
2024-05-09T14:40:54.545Z,1.40
2024-05-09T14:50:54.499Z,1.90
2024-05-09T15:00:54.862Z,1.00
2024-05-09T15:10:54.935Z,1.30
2024-05-09T15:20:55.079Z,1.60
2024-05-09T15:30:55.287Z,1.60
2024-05-09T15:40:55.914Z,1.40
2024-05-09T15:50:55.757Z,1.70
2024-05-09T16:00:56.178Z,2.40
2024-05-09T16:10:56.072Z,2.50
2024-05-09T16:20:56.186Z,2.60
2024-05-09T16:30:56.412Z,2.40
2024-05-09T16:40:56.718Z,3.00
2024-05-09T16:50:56.851Z,2.70
2024-05-09T17:00:57.169Z,3.00
2024-05-09T17:10:57.222Z,2.90
2024-05-09T17:20:57.266Z,2.80
2024-05-09T17:30:57.501Z,3.50
2024-05-09T17:40:57.873Z,3.10
2024-05-09T17:50:57.862Z,3.70
2024-05-09T18:00:58.245Z,4.00
2024-05-09T18:10:58.391Z,4.20
2024-05-09T18:20:58.491Z,4.10
2024-05-09T18:30:58.486Z,3.80
2024-05-09T18:40:58.860Z,3.70
2024-05-09T18:50:58.762Z,6.10
2024-05-09T19:01:00.982Z,5.10
2024-05-09T19:10:59.047Z,4.30
2024-05-09T19:20:59.286Z,4.70
2024-05-09T19:30:59.486Z,5.00
2024-05-09T19:40:59.796Z,5.70
2024-05-09T19:50:59.811Z,5.30
2024-05-09T20:01:00.150Z,5.40
2024-05-09T20:11:00.139Z,6.30
2024-05-09T20:21:00.752Z,6.20
2024-05-09T20:31:00.506Z,6.40
2024-05-09T20:41:00.869Z,6.30
2024-05-09T20:51:00.796Z,6.30
2024-05-09T21:01:01.105Z,6.30
2024-05-09T21:11:01.125Z,6.10
2024-05-09T21:21:01.366Z,5.90
2024-05-09T21:31:01.541Z,5.90
2024-05-09T21:41:01.939Z,6.00
2024-05-09T21:51:01.916Z,6.30
2024-05-09T22:01:02.276Z,6.70
2024-05-09T22:11:02.547Z,7.70
2024-05-09T22:21:02.614Z,8.20
2024-05-09T22:31:02.806Z,8.90
2024-05-09T22:41:03.076Z,8.20
2024-05-09T22:51:03.383Z,7.60
2024-05-09T23:01:03.589Z,8.10
2024-05-09T23:11:03.688Z,7.40
2024-05-09T23:21:03.970Z,7.80
2024-05-09T23:31:03.955Z,6.80
2024-05-09T23:41:04.131Z,6.50
2024-05-09T23:51:04.317Z,6.30
